Time;durP1;ratioP1;P1;durP2;ratioP2;P2;SDS_P1;SDS_P2;PMS_P1;PMS_P2;Temp;Humidity;BMP_temperature;BMP_pressure;BME280_temperature;BME280_humidity;BME280_pressure;Samples;Min_cycle;Max_cycle;Signal;HPM_P1;HPM_P2
2024/02/17 00:01:44;;;;;;;37.92;24.77;;;;;;;2.33;97.95;93734.75;5067256;28;20164;-72
2024/02/17 00:04:11;;;;;;;37.78;23.45;;;;;;;2.26;96.60;93715.06;5069807;28;20424;-72
2024/02/17 00:06:38;;;;;;;32.47;20.92;;;;;;;2.27;96.44;93731.09;5069777;28;20497;-72
2024/02/17 00:09:05;;;;;;;32.60;20.40;;;;;;;2.26;95.72;93727.75;5065943;28;20062;-72
2024/02/17 00:11:34;;;;;;;32.38;20.33;;;;;;;2.30;97.12;93723.16;5069386;28;20066;-72
2024/02/17 00:14:02;;;;;;;30.48;19.23;;;;;;;2.23;96.53;93728.00;5067524;28;21134;-72
2024/02/17 00:16:29;;;;;;;29.85;19.10;;;;;;;2.25;96.03;93732.94;5069441;28;20078;-72
2024/02/17 00:18:55;;;;;;;30.08;19.95;;;;;;;2.15;97.06;93720.34;5070659;28;20552;-72
2024/02/17 00:21:22;;;;;;;34.20;20.73;;;;;;;2.22;97.16;93728.19;5072150;28;20127;-72
2024/02/17 00:23:49;;;;;;;25.50;17.40;;;;;;;2.14;97.31;93728.91;5079808;28;20740;-72
2024/02/17 00:26:18;;;;;;;25.98;16.45;;;;;;;2.09;96.77;93736.91;5067382;28;20045;-72
2024/02/17 00:28:47;;;;;;;21.20;14.63;;;;;;;2.09;97.36;93733.59;5067243;28;20045;-72
2024/02/17 00:31:14;;;;;;;23.52;13.80;;;;;;;1.94;98.07;93718.13;5072857;28;20055;-72
2024/02/17 00:33:41;;;;;;;19.50;13.30;;;;;;;2.02;98.30;93727.50;5070591;28;20060;-72
2024/02/17 00:36:09;;;;;;;19.55;13.43;;;;;;;2.02;97.54;93723.25;5069302;28;20766;-72
2024/02/17 00:38:35;;;;;;;20.83;14.38;;;;;;;2.03;97.05;93729.91;5068226;28;20044;-72
2024/02/17 00:41:06;;;;;;;22.17;14.52;;;;;;;2.01;98.03;93729.25;5066561;28;20059;-72
2024/02/17 00:43:33;;;;;;;20.77;15.00;;;;;;;1.77;97.75;93692.63;5068484;28;20048;-72
2024/02/17 00:46:01;;;;;;;27.10;16.95;;;;;;;1.99;98.41;93734.47;5076666;28;20126;-72
2024/02/17 00:48:28;;;;;;;27.63;17.58;;;;;;;1.98;99.07;93730.34;5067069;28;20048;-72
2024/02/17 00:50:56;;;;;;;26.90;16.63;;;;;;;1.98;98.46;93729.53;5069005;28;20055;-72
2024/02/17 00:53:23;;;;;;;23.77;16.63;;;;;;;2.00;98.43;93730.19;5075447;28;20155;-72
2024/02/17 00:55:49;;;;;;;28.40;17.83;;;;;;;2.02;99.19;93733.38;5067073;28;20054;-72
2024/02/17 00:58:16;;;;;;;23.80;16.50;;;;;;;2.02;98.86;93725.78;5077363;28;20044;-72
2024/02/17 01:00:43;;;;;;;22.25;15.20;;;;;;;1.98;98.49;93727.00;5067876;28;20151;-72
2024/02/17 01:03:13;;;;;;;22.63;13.82;;;;;;;2.01;96.92;93726.72;5068428;28;20834;-72
2024/02/17 01:05:42;;;;;;;19.10;13.13;;;;;;;1.94;97.81;93726.50;5068465;28;20061;-72
2024/02/17 01:08:10;;;;;;;17.65;12.18;;;;;;;1.92;96.69;93728.38;5068347;28;20508;-72
2024/02/17 01:10:37;;;;;;;19.70;12.50;;;;;;;1.88;95.96;93732.13;5066123;28;20125;-72
2024/02/17 01:13:05;;;;;;;16.23;12.05;;;;;;;1.74;95.90;93713.16;5068441;28;20052;-72
2024/02/17 01:15:32;;;;;;;17.25;11.65;;;;;;;1.70;96.84;93722.78;5069845;28;20458;-72
2024/02/17 01:17:59;;;;;;;19.33;12.32;;;;;;;1.71;96.64;93726.13;5073867;28;20135;-72
2024/02/17 01:20:28;;;;;;;17.05;12.10;;;;;;;1.72;96.25;93725.97;5066313;28;20092;-72
2024/02/17 01:22:55;;;;;;;19.00;13.73;;;;;;;1.67;96.72;93719.75;5067580;28;20169;-72
2024/02/17 01:25:23;;;;;;;18.70;12.55;;;;;;;1.69;98.24;93727.97;5071169;28;20048;-72
2024/02/17 01:27:50;;;;;;;20.27;13.30;;;;;;;1.68;97.70;93729.72;5063510;28;20051;-72
2024/02/17 01:30:17;;;;;;;28.67;17.80;;;;;;;1.65;97.88;93724.13;5069317;28;20061;-72
2024/02/17 01:32:44;;;;;;;25.95;16.27;;;;;;;1.66;98.39;93729.06;5067191;28;20916;-71
2024/02/17 01:35:13;;;;;;;30.63;18.45;;;;;;;1.65;96.66;93735.06;5068321;28;20049;-72
2024/02/17 01:37:41;;;;;;;28.55;17.50;;;;;;;1.67;97.41;93727.34;5068754;28;20044;-72
2024/02/17 01:40:09;;;;;;;24.92;16.27;;;;;;;1.60;97.51;93730.44;5066536;28;20050;-72
2024/02/17 01:42:36;;;;;;;32.15;18.35;;;;;;;1.66;96.54;93736.66;5067659;28;20532;-72
2024/02/17 01:45:05;;;;;;;30.63;20.05;;;;;;;1.61;97.55;93723.63;5070469;28;20953;-72
2024/02/17 01:47:31;;;;;;;36.70;22.83;;;;;;;1.65;99.12;93724.94;5063967;28;20102;-72
2024/02/17 01:49:58;;;;;;;39.33;24.67;;;;;;;1.63;99.69;93720.94;5079223;28;20052;-72
2024/02/17 01:52:25;;;;;;;37.53;24.05;;;;;;;1.63;99.17;93724.28;5072042;28;20054;-72
2024/02/17 01:54:54;;;;;;;40.55;24.55;;;;;;;1.64;99.37;93720.81;5066898;28;20155;-72
2024/02/17 01:57:22;;;;;;;41.80;24.48;;;;;;;1.64;97.78;93722.53;5067188;28;20056;-72
2024/02/17 01:59:49;;;;;;;38.08;22.38;;;;;;;1.57;98.26;93720.56;5069599;28;20529;-72
2024/02/17 02:02:16;;;;;;;30.48;20.20;;;;;;;1.57;96.63;93725.63;5064144;28;20059;-73
2024/02/17 02:04:43;;;;;;;27.35;18.15;;;;;;;1.50;96.76;93727.16;5066232;28;20040;-72
2024/02/17 02:07:10;;;;;;;29.98;19.10;;;;;;;1.48;98.13;93723.16;5069917;28;20499;-72
2024/02/17 02:09:57;;;;;;;24.20;15.45;;;;;;;1.45;97.82;93722.50;5065101;28;20049;-72
2024/02/17 02:12:24;;;;;;;22.70;14.65;;;;;;;1.35;98.04;93726.03;5067984;28;20139;-72
2024/02/17 02:15:03;;;;;;;18.60;12.73;;;;;;;1.29;98.49;93717.28;5073503;28;20040;-72
2024/02/17 02:17:30;;;;;;;21.63;13.73;;;;;;;1.30;99.24;93728.97;5067689;28;20051;-72
2024/02/17 02:19:57;;;;;;;23.23;15.32;;;;;;;1.22;99.53;93718.75;5072855;28;20076;-72
2024/02/17 02:22:24;;;;;;;24.58;17.00;;;;;;;1.28;100.00;93726.59;5072175;28;20051;-72
2024/02/17 02:24:57;;;;;;;30.95;21.15;;;;;;;1.24;100.00;93725.25;5075120;28;20117;-72
2024/02/17 02:27:26;;;;;;;34.10;23.35;;;;;;;1.20;100.00;93724.75;5067883;28;20592;-72
2024/02/17 02:29:56;;;;;;;28.70;20.30;;;;;;;1.13;100.00;93721.19;5063945;28;20131;-72
2024/02/17 02:32:26;;;;;;;32.55;21.55;;;;;;;1.16;100.00;93725.16;5069239;28;20141;-72
2024/02/17 02:34:54;;;;;;;29.08;20.75;;;;;;;1.20;100.00;93723.94;5066017;28;20156;-72
2024/02/17 02:37:21;;;;;;;31.45;21.08;;;;;;;1.20;100.00;93729.00;5077521;28;20660;-72
2024/02/17 02:39:48;;;;;;;33.53;20.83;;;;;;;1.18;100.00;93726.63;5066246;28;20139;-72
2024/02/17 02:42:15;;;;;;;33.88;20.17;;;;;;;1.20;100.00;93734.06;5071717;28;20521;-72
2024/02/17 02:44:43;;;;;;;25.55;17.48;;;;;;;1.10;100.00;93715.59;5078101;28;20477;-72
2024/02/17 02:47:10;;;;;;;25.02;15.90;;;;;;;1.12;99.71;93727.19;5066225;28;20080;-72
2024/02/17 02:49:37;;;;;;;20.35;13.48;;;;;;;1.11;99.55;93729.84;5069103;28;20146;-72
2024/02/17 02:52:04;;;;;;;17.60;12.35;;;;;;;1.06;99.86;93728.53;5075581;28;20075;-72
2024/02/17 02:54:31;;;;;;;19.33;12.82;;;;;;;1.03;99.42;93728.00;5067377;28;20097;-72
2024/02/17 02:56:58;;;;;;;18.10;12.82;;;;;;;1.04;99.47;93732.13;5070412;28;20423;-72
2024/02/17 02:59:25;;;;;;;20.70;13.43;;;;;;;0.99;99.06;93730.00;5068773;28;20590;-72
2024/02/17 03:01:54;;;;;;;16.58;11.88;;;;;;;0.95;99.58;93730.41;5073123;28;20130;-72
2024/02/17 03:04:21;;;;;;;19.30;13.15;;;;;;;0.93;99.76;93733.88;5079593;28;20126;-72
2024/02/17 03:06:48;;;;;;;17.90;12.18;;;;;;;0.90;100.00;93733.38;5065834;28;20055;-72
2024/02/17 03:09:15;;;;;;;20.02;13.90;;;;;;;0.97;100.00;93743.75;5065130;28;20560;-73
2024/02/17 03:11:47;;;;;;;19.92;12.95;;;;;;;0.97;99.54;93739.47;5064791;28;20910;-72
2024/02/17 03:14:15;;;;;;;18.85;12.85;;;;;;;0.71;100.00;93714.78;5067348;28;20123;-73
2024/02/17 03:16:42;;;;;;;22.42;14.70;;;;;;;0.87;100.00;93738.69;5066977;28;20076;-73
2024/02/17 03:19:10;;;;;;;24.02;15.73;;;;;;;0.90;100.00;93741.75;5066241;28;20040;-73
2024/02/17 03:21:37;;;;;;;27.48;16.38;;;;;;;1.01;100.00;93750.91;5064558;28;20086;-73
2024/02/17 03:24:05;;;;;;;29.25;19.50;;;;;;;0.94;100.00;93742.28;5066527;28;20036;-72
2024/02/17 03:26:32;;;;;;;26.45;17.85;;;;;;;0.91;100.00;93743.34;5070374;28;20556;-72
2024/02/17 03:28:59;;;;;;;29.33;17.73;;;;;;;1.10;100.00;93746.75;5066345;28;20147;-72
2024/02/17 03:31:26;;;;;;;24.00;15.80;;;;;;;0.94;100.00;93742.28;5073913;28;20045;-72
2024/02/17 03:33:54;;;;;;;26.75;17.30;;;;;;;1.01;100.00;93755.16;5081176;28;20439;-72
2024/02/17 03:36:22;;;;;;;25.75;16.88;;;;;;;1.03;100.00;93748.25;5076909;28;20441;-72
2024/02/17 03:38:49;;;;;;;23.27;15.20;;;;;;;0.91;100.00;93737.47;5071066;28;20159;-72
2024/02/17 03:41:16;;;;;;;22.85;13.95;;;;;;;0.87;100.00;93733.63;5074863;28;20128;-73
2024/02/17 03:43:43;;;;;;;22.77;14.00;;;;;;;0.91;100.00;93743.34;5074527;28;20124;-72
2024/02/17 03:46:10;;;;;;;19.40;11.98;;;;;;;0.88;99.63;93742.81;5069973;28;20052;-72
2024/02/17 03:48:37;;;;;;;17.50;12.35;;;;;;;0.77;98.68;93741.25;5074565;28;20044;-73
2024/02/17 03:51:05;;;;;;;21.75;12.88;;;;;;;0.74;99.00;93739.00;5073498;28;20048;-73
2024/02/17 03:53:35;;;;;;;21.08;12.77;;;;;;;0.65;98.11;93745.66;5072849;28;20127;-73
2024/02/17 03:56:02;;;;;;;16.98;11.45;;;;;;;0.53;98.48;93732.38;5073367;28;20392;-73
2024/02/17 03:58:29;;;;;;;19.40;12.38;;;;;;;0.53;99.78;93750.88;5070582;28;20222;-73
2024/02/17 04:00:56;;;;;;;18.23;11.80;;;;;;;0.58;99.54;93744.59;5075306;28;20831;-73
2024/02/17 04:03:23;;;;;;;14.90;11.32;;;;;;;0.55;100.00;93735.53;5068286;28;20041;-73
2024/02/17 04:05:50;;;;;;;16.95;12.73;;;;;;;0.57;99.90;93743.00;5069702;28;20056;-73
2024/02/17 04:08:17;;;;;;;17.92;12.75;;;;;;;0.46;100.00;93741.44;5070641;28;20048;-72
2024/02/17 04:10:45;;;;;;;15.88;11.82;;;;;;;0.43;100.00;93739.97;5075242;28;20147;-72
2024/02/17 04:13:12;;;;;;;20.20;12.95;;;;;;;0.39;100.00;93741.97;5071351;28;20092;-72
2024/02/17 04:15:39;;;;;;;21.05;14.77;;;;;;;0.34;100.00;93744.09;5070656;28;20049;-72
2024/02/17 04:18:08;;;;;;;42.50;27.30;;;;;;;0.27;100.00;93745.53;5075664;28;20050;-72
2024/02/17 04:20:37;;;;;;;42.33;28.45;;;;;;;0.25;100.00;93745.69;5069190;28;20114;-72
2024/02/17 04:23:05;;;;;;;41.25;27.42;;;;;;;0.22;100.00;93745.13;5076207;28;20507;-72
2024/02/17 04:25:32;;;;;;;38.05;25.50;;;;;;;0.23;100.00;93741.69;5072393;28;20132;-72
2024/02/17 04:28:03;;;;;;;33.45;22.73;;;;;;;0.28;100.00;93742.09;5075943;28;20126;-72
2024/02/17 04:30:30;;;;;;;36.13;23.08;;;;;;;0.29;100.00;93742.88;5072445;28;20094;-72
2024/02/17 04:32:58;;;;;;;39.90;24.10;;;;;;;0.35;100.00;93747.41;5071656;28;20575;-72
2024/02/17 04:35:25;;;;;;;40.15;24.30;;;;;;;0.33;100.00;93747.53;5074978;28;20053;-72
2024/02/17 04:37:52;;;;;;;37.15;23.52;;;;;;;0.34;100.00;93754.19;5074703;28;20047;-72
2024/02/17 04:40:19;;;;;;;35.28;23.35;;;;;;;0.31;100.00;93749.41;5070562;28;20044;-72
2024/02/17 04:42:46;;;;;;;39.15;23.27;;;;;;;0.30;100.00;93752.88;5074309;28;20168;-72
2024/02/17 04:45:14;;;;;;;40.15;25.33;;;;;;;0.31;100.00;93756.19;5073377;28;20094;-72
2024/02/17 04:47:41;;;;;;;49.15;29.88;;;;;;;0.25;100.00;93758.31;5073064;28;20048;-72
2024/02/17 04:50:12;;;;;;;41.83;26.40;;;;;;;0.16;100.00;93736.38;5076725;28;20143;-72
2024/02/17 04:52:41;;;;;;;35.72;22.98;;;;;;;0.21;100.00;93757.00;5073673;28;20055;-72
2024/02/17 04:55:08;;;;;;;36.88;24.52;;;;;;;0.03;100.00;93740.88;5070221;28;20052;-72
2024/02/17 04:57:35;;;;;;;81.88;38.60;;;;;;;0.03;100.00;93756.84;5071448;28;20049;-72
2024/02/17 05:00:03;;;;;;;65.25;32.65;;;;;;;-0.07;100.00;93750.97;5077645;28;20046;-72
2024/02/17 05:02:31;;;;;;;59.38;30.73;;;;;;;-0.02;100.00;93757.25;5079929;28;20106;-72
2024/02/17 05:04:58;;;;;;;39.33;23.25;;;;;;;-0.01;100.00;93750.44;5071240;28;20048;-72
2024/02/17 05:07:25;;;;;;;51.15;29.40;;;;;;;0.07;100.00;93753.13;5076366;28;20053;-71
2024/02/17 05:09:52;;;;;;;49.13;27.15;;;;;;;0.09;100.00;93758.06;5067379;28;20052;-72
2024/02/17 05:12:19;;;;;;;51.28;28.67;;;;;;;0.10;100.00;93762.94;5074221;28;20130;-72
2024/02/17 05:14:46;;;;;;;72.32;40.03;;;;;;;0.16;100.00;93763.34;5072138;28;20167;-72
2024/02/17 05:17:13;;;;;;;112.72;61.42;;;;;;;0.17;100.00;93772.53;5071469;28;20049;-71
2024/02/17 05:19:42;;;;;;;141.30;75.45;;;;;;;0.18;100.00;93759.00;5068447;28;20052;-71
2024/02/17 05:22:08;;;;;;;98.05;52.72;;;;;;;0.18;100.00;93766.56;5071974;28;20044;-71
2024/02/17 05:24:35;;;;;;;68.22;39.40;;;;;;;0.17;100.00;93765.75;5070458;28;20408;-71
2024/02/17 05:27:03;;;;;;;59.10;34.03;;;;;;;0.15;100.00;93764.28;5069965;28;20078;-71
2024/02/17 05:29:32;;;;;;;50.22;28.55;;;;;;;0.10;100.00;93757.13;5076260;28;20048;-71
2024/02/17 05:31:58;;;;;;;48.40;28.67;;;;;;;0.17;100.00;93775.06;5075048;28;20052;-71
2024/02/17 05:34:25;;;;;;;46.70;27.75;;;;;;;0.13;100.00;93777.84;5074448;28;20499;-71
2024/02/17 05:36:54;;;;;;;44.33;27.55;;;;;;;0.23;100.00;93775.31;5075203;28;20055;-71
2024/02/17 05:39:21;;;;;;;34.13;21.90;;;;;;;0.25;100.00;93773.50;5073749;28;20048;-72
2024/02/17 05:41:48;;;;;;;32.78;20.42;;;;;;;-0.01;100.00;93727.72;5073703;28;20280;-72
2024/02/17 05:44:15;;;;;;;28.40;19.67;;;;;;;0.31;100.00;93778.91;5070951;28;20123;-71
2024/02/17 05:46:42;;;;;;;30.08;20.63;;;;;;;0.30;100.00;93777.31;5076599;28;20048;-71
2024/02/17 05:49:10;;;;;;;30.42;19.33;;;;;;;0.31;100.00;93791.56;5068983;28;20052;-71
2024/02/17 05:51:37;;;;;;;25.08;17.90;;;;;;;0.25;100.00;93778.53;5069268;28;20052;-72
2024/02/17 05:54:05;;;;;;;28.67;17.27;;;;;;;0.36;100.00;93786.91;5076348;28;20048;-71
2024/02/17 05:56:32;;;;;;;28.50;17.48;;;;;;;0.32;100.00;93800.75;5071420;28;20047;-71
2024/02/17 05:58:59;;;;;;;25.50;16.48;;;;;;;0.38;100.00;93798.47;5068963;28;20591;-71
2024/02/17 06:01:26;;;;;;;26.83;17.88;;;;;;;0.42;100.00;93805.81;5071250;28;20044;-71
2024/02/17 06:03:53;;;;;;;25.17;17.33;;;;;;;0.27;100.00;93775.88;5069133;28;20531;-71
2024/02/17 06:06:20;;;;;;;28.80;18.45;;;;;;;0.53;100.00;93810.72;5073904;28;20036;-71
2024/02/17 06:08:47;;;;;;;27.75;18.48;;;;;;;0.55;100.00;93800.50;5070077;28;20059;-71
2024/02/17 06:11:15;;;;;;;28.73;18.48;;;;;;;0.63;100.00;93810.72;5077690;28;20048;-72
2024/02/17 06:13:43;;;;;;;28.02;20.10;;;;;;;0.64;100.00;93803.00;5075059;28;20052;-71
2024/02/17 06:16:11;;;;;;;43.08;28.42;;;;;;;0.71;100.00;93815.94;5071555;28;20040;-71
2024/02/17 06:21:23;;;;;;;36.45;24.60;;;;;;;0.89;100.00;93828.66;5078320;28;20066;-71
2024/02/17 06:23:51;;;;;;;35.38;24.25;;;;;;;0.97;100.00;93828.00;5072027;28;20049;-71
2024/02/17 06:26:26;;;;;;;34.95;22.52;;;;;;;1.02;100.00;93835.97;5087049;28;20516;-71
2024/02/17 06:28:54;;;;;;;28.57;19.70;;;;;;;1.02;100.00;93833.44;5082343;28;20043;-71
2024/02/17 06:31:21;;;;;;;31.00;21.10;;;;;;;1.00;100.00;93819.34;5067771;28;20546;-71
2024/02/17 06:33:48;;;;;;;31.63;20.13;;;;;;;1.13;100.00;93834.25;5083338;28;20048;-71
2024/02/17 06:36:15;;;;;;;31.77;22.23;;;;;;;1.22;100.00;93840.22;5077443;28;20044;-71
2024/02/17 06:38:42;;;;;;;43.13;28.05;;;;;;;1.22;100.00;93835.97;5078801;28;20046;-71
2024/02/17 06:41:11;;;;;;;45.20;29.90;;;;;;;1.27;100.00;93838.88;5068117;28;20052;-71
2024/02/17 06:43:39;;;;;;;48.08;32.30;;;;;;;1.36;100.00;93837.25;5084088;28;20040;-71
2024/02/17 06:46:07;;;;;;;37.50;25.55;;;;;;;1.38;100.00;93837.91;5079320;28;20045;-71
2024/02/17 06:48:36;;;;;;;31.45;22.75;;;;;;;1.52;100.00;93836.66;5077106;28;20523;-72
2024/02/17 06:51:03;;;;;;;30.50;19.42;;;;;;;1.60;100.00;93839.31;5081532;28;20079;-71
2024/02/17 06:53:30;;;;;;;35.97;22.10;;;;;;;1.77;100.00;93831.94;5077049;28;20159;-71
2024/02/17 06:55:57;;;;;;;37.83;24.73;;;;;;;1.83;100.00;93822.97;5079420;28;20040;-72
2024/02/17 06:58:24;;;;;;;35.90;23.00;;;;;;;2.08;100.00;93833.38;5078908;28;20041;-71
2024/02/17 07:00:53;;;;;;;33.65;22.45;;;;;;;2.28;100.00;93841.69;5079124;28;20555;-71
2024/02/17 07:03:20;;;;;;;32.28;21.25;;;;;;;2.50;100.00;93837.13;5086151;28;20040;-72
2024/02/17 07:05:46;;;;;;;45.10;28.63;;;;;;;2.51;100.00;93826.81;5084034;28;20050;-71
2024/02/17 07:08:14;;;;;;;40.15;26.40;;;;;;;2.79;100.00;93844.50;5075177;28;20045;-71
2024/02/17 07:10:41;;;;;;;48.25;28.13;;;;;;;2.97;100.00;93840.38;5066858;28;20052;-71
2024/02/17 07:13:08;;;;;;;33.72;22.98;;;;;;;3.04;100.00;93841.38;5086487;28;20500;-71
2024/02/17 07:15:35;;;;;;;40.92;26.45;;;;;;;3.07;100.00;93846.94;5082618;28;20047;-71
2024/02/17 07:18:04;;;;;;;49.08;31.65;;;;;;;3.21;100.00;93843.06;5064492;28;20848;-72
2024/02/17 07:20:31;;;;;;;54.13;34.65;;;;;;;3.35;100.00;93853.66;5073876;28;20052;-71
2024/02/17 07:22:58;;;;;;;45.88;27.52;;;;;;;3.41;100.00;93837.00;5068111;28;20048;-72
2024/02/17 07:25:27;;;;;;;35.88;23.50;;;;;;;3.52;100.00;93846.91;5075970;28;20060;-72
2024/02/17 07:27:57;;;;;;;39.47;23.77;;;;;;;3.63;100.00;93847.59;5072702;28;20132;-72
2024/02/17 07:30:24;;;;;;;32.80;21.10;;;;;;;3.53;100.00;93835.03;5065613;28;20044;-72
2024/02/17 07:32:51;;;;;;;36.45;21.80;;;;;;;3.53;100.00;93840.09;5067806;28;20049;-72
2024/02/17 07:35:19;;;;;;;35.30;20.67;;;;;;;3.68;100.00;93836.06;5068248;28;20053;-72
2024/02/17 07:37:46;;;;;;;33.83;21.95;;;;;;;3.70;100.00;93844.31;5075258;28;20060;-72
2024/02/17 07:40:13;;;;;;;31.63;19.95;;;;;;;3.66;100.00;93840.47;5067640;28;20126;-72
2024/02/17 07:42:40;;;;;;;33.55;21.05;;;;;;;3.81;100.00;93850.09;5067464;28;20044;-72
2024/02/17 07:45:08;;;;;;;37.10;22.98;;;;;;;4.06;100.00;93835.72;5069699;28;20045;-72
2024/02/17 07:47:35;;;;;;;30.25;19.42;;;;;;;4.29;100.00;93837.72;5068445;28;20086;-71
2024/02/17 07:50:04;;;;;;;29.58;17.98;;;;;;;4.33;100.00;93825.47;5069084;28;20070;-71
2024/02/17 07:52:35;;;;;;;30.85;18.13;;;;;;;4.62;100.00;93837.78;5068422;28;20059;-71
2024/02/17 07:55:03;;;;;;;35.38;19.90;;;;;;;4.74;100.00;93840.00;5067807;28;20043;-72
2024/02/17 07:57:30;;;;;;;47.17;26.52;;;;;;;4.71;100.00;93843.66;5074891;28;20072;-71
2024/02/17 07:59:57;;;;;;;44.65;24.48;;;;;;;4.88;100.00;93831.75;5069219;28;20047;-71
2024/02/17 08:02:24;;;;;;;40.40;21.35;;;;;;;5.10;100.00;93836.38;5068260;28;20048;-71
2024/02/17 08:04:53;;;;;;;36.72;18.67;;;;;;;5.01;100.00;93841.47;5077644;28;20113;-72
2024/02/17 08:07:20;;;;;;;34.13;20.60;;;;;;;5.22;99.36;93840.16;5066997;28;20071;-72
2024/02/17 08:09:48;;;;;;;41.03;24.02;;;;;;;5.26;97.71;93843.19;5069328;28;20044;-72
2024/02/17 08:12:16;;;;;;;38.35;21.55;;;;;;;5.35;99.62;93839.69;5068238;28;20059;-72
2024/02/17 08:14:43;;;;;;;30.55;18.15;;;;;;;5.44;99.86;93836.19;5067705;28;20500;-72
2024/02/17 08:17:10;;;;;;;36.78;17.90;;;;;;;5.51;98.31;93841.41;5073283;28;20059;-72
2024/02/17 08:19:37;;;;;;;32.70;18.88;;;;;;;5.46;98.46;93841.91;5072168;28;20067;-72
2024/02/17 08:22:04;;;;;;;34.97;17.58;;;;;;;5.61;97.11;93839.47;5073404;28;20113;-72
2024/02/17 08:24:31;;;;;;;36.40;17.83;;;;;;;5.87;97.86;93842.75;5079228;28;20139;-72
2024/02/17 08:26:59;;;;;;;30.77;18.08;;;;;;;6.03;98.86;93834.28;5074343;28;20054;-72
2024/02/17 08:29:26;;;;;;;37.53;17.77;;;;;;;6.33;97.33;93848.97;5070943;28;20059;-72
2024/02/17 08:31:53;;;;;;;35.55;17.85;;;;;;;6.49;95.26;93843.00;5069619;28;20090;-71
2024/02/17 08:34:20;;;;;;;29.73;16.35;;;;;;;6.50;91.52;93842.03;5076818;28;20040;-72
2024/02/17 08:36:47;;;;;;;31.15;16.48;;;;;;;6.42;92.01;93850.50;5077547;28;20050;-71
2024/02/17 08:39:14;;;;;;;30.02;14.07;;;;;;;6.38;92.75;93839.84;5068919;28;20048;-71
2024/02/17 08:41:41;;;;;;;29.00;14.80;;;;;;;6.46;93.16;93839.00;5072637;28;20048;-71
2024/02/17 08:44:10;;;;;;;28.88;14.13;;;;;;;6.52;92.35;93840.09;5076083;28;20049;-71
2024/02/17 08:46:37;;;;;;;27.55;14.40;;;;;;;6.73;92.96;93843.78;5070845;28;20055;-71
2024/02/17 08:49:04;;;;;;;30.35;16.35;;;;;;;6.91;91.90;93846.84;5079867;28;20380;-71
2024/02/17 08:51:31;;;;;;;30.63;15.30;;;;;;;7.07;91.59;93840.84;5079916;28;20052;-72
2024/02/17 08:53:58;;;;;;;26.73;14.35;;;;;;;7.12;88.81;93850.53;5074827;28;20048;-71
2024/02/17 08:56:25;;;;;;;27.50;12.90;;;;;;;7.26;85.46;93851.53;5075772;28;20385;-71
2024/02/17 08:58:52;;;;;;;24.70;12.13;;;;;;;7.54;85.61;93853.53;5070787;28;20056;-71
2024/02/17 09:01:20;;;;;;;19.88;11.57;;;;;;;7.43;85.05;93852.19;5084269;28;20237;-72
2024/02/17 09:03:47;;;;;;;24.80;12.82;;;;;;;7.72;86.94;93853.19;5070301;28;20048;-71
2024/02/17 09:06:15;;;;;;;22.75;13.25;;;;;;;7.89;84.78;93837.69;5078145;28;20412;-72
2024/02/17 09:08:42;;;;;;;21.05;11.45;;;;;;;8.22;84.21;93849.28;5071911;28;20067;-72
2024/02/17 09:11:09;;;;;;;17.75;9.88;;;;;;;8.18;80.59;93841.19;5072544;28;20055;-72
2024/02/17 09:13:36;;;;;;;17.90;10.38;;;;;;;8.35;78.36;93843.53;5068096;28;20467;-73
2024/02/17 09:16:04;;;;;;;14.90;8.82;;;;;;;8.39;78.92;93842.97;5074072;28;20761;-72
2024/02/17 09:18:33;;;;;;;17.05;9.23;;;;;;;8.41;79.60;93842.81;5072539;28;20075;-71
2024/02/17 09:21:00;;;;;;;18.30;10.10;;;;;;;8.23;77.18;93817.59;5070088;28;20084;-72
2024/02/17 09:23:26;;;;;;;13.80;7.50;;;;;;;8.38;76.17;93853.44;5070666;28;20074;-72
2024/02/17 09:25:53;;;;;;;18.63;9.27;;;;;;;8.61;76.05;93852.50;5070076;28;20079;-72
2024/02/17 09:28:20;;;;;;;17.40;8.50;;;;;;;8.59;77.13;93852.69;5071614;28;20128;-72
2024/02/17 09:30:47;;;;;;;34.80;10.98;;;;;;;8.76;78.46;93850.72;5073502;28;20048;-71
2024/02/17 09:33:14;;;;;;;23.48;10.80;;;;;;;8.98;76.34;93848.13;5068487;28;20045;-72
2024/02/17 09:35:43;;;;;;;27.25;11.40;;;;;;;9.19;77.09;93849.91;5077824;28;20044;-71
2024/02/17 09:38:09;;;;;;;24.45;9.73;;;;;;;9.34;74.00;93849.81;5069107;28;20137;-71
2024/02/17 09:40:37;;;;;;;22.70;9.95;;;;;;;9.30;71.76;93853.72;5073545;28;20052;-72
2024/02/17 09:43:04;;;;;;;13.02;6.13;;;;;;;9.40;68.78;93858.50;5077976;28;20040;-72
2024/02/17 09:45:31;;;;;;;24.13;8.20;;;;;;;9.46;70.05;93857.81;5068109;28;20493;-71
2024/02/17 09:48:00;;;;;;;22.85;8.73;;;;;;;9.70;74.59;93847.28;5073935;28;20062;-71
2024/02/17 09:50:29;;;;;;;19.48;9.20;;;;;;;10.00;75.34;93841.94;5070826;28;20846;-71
2024/02/17 09:53:01;;;;;;;22.70;9.20;;;;;;;10.31;75.83;93845.03;5069709;28;20083;-71
2024/02/17 09:55:30;;;;;;;22.77;8.85;;;;;;;10.50;70.43;93854.59;5067765;28;20041;-71
2024/02/17 09:57:57;;;;;;;23.15;10.43;;;;;;;10.02;70.43;93842.53;5071080;28;20668;-71
2024/02/17 10:00:24;;;;;;;21.83;9.00;;;;;;;10.21;71.95;93835.09;5067711;28;20055;-71
2024/02/17 10:02:51;;;;;;;18.23;8.38;;;;;;;10.63;67.59;93838.44;5069410;28;20062;-71
2024/02/17 10:05:20;;;;;;;13.63;6.85;;;;;;;10.50;67.56;93830.66;5069480;28;20159;-71
2024/02/17 10:07:49;;;;;;;18.08;6.72;;;;;;;10.68;67.12;93836.06;5069409;28;20159;-71
2024/02/17 10:10:18;;;;;;;19.40;7.95;;;;;;;10.68;66.40;93832.69;5076510;28;20052;-71
2024/02/17 10:12:49;;;;;;;17.60;7.22;;;;;;;10.52;65.81;93833.88;5072286;28;20058;-71
2024/02/17 10:15:16;;;;;;;15.02;6.85;;;;;;;10.78;64.91;93827.22;5066692;28;20045;-71
2024/02/17 10:17:43;;;;;;;16.27;7.25;;;;;;;11.09;66.25;93829.22;5067911;28;20047;-71
2024/02/17 10:20:12;;;;;;;39.05;10.75;;;;;;;11.29;68.93;93825.84;5071687;28;20082;-71
2024/02/17 10:22:39;;;;;;;42.40;13.18;;;;;;;11.63;69.59;93825.81;5067805;28;20044;-71
2024/02/17 10:25:07;;;;;;;32.30;8.80;;;;;;;11.73;64.25;93831.34;5073605;28;20048;-71
2024/02/17 10:27:39;;;;;;;31.85;10.10;;;;;;;11.49;62.54;93807.81;5070328;28;20466;-71
2024/02/17 10:30:14;;;;;;;37.10;11.57;;;;;;;11.61;63.44;93826.00;5067899;28;20272;-71
2024/02/17 10:32:41;;;;;;;42.50;12.93;;;;;;;11.93;64.73;93824.56;5074577;28;20421;-71
2024/02/17 10:35:09;;;;;;;36.17;10.63;;;;;;;11.93;63.50;93825.34;5074234;28;20063;-71
2024/02/17 10:37:38;;;;;;;41.38;13.07;;;;;;;12.13;62.30;93825.31;5067096;28;20400;-71
2024/02/17 10:40:07;;;;;;;43.65;11.90;;;;;;;12.00;62.29;93828.69;5071087;28;20121;-71
2024/02/17 10:42:35;;;;;;;31.85;11.50;;;;;;;12.06;58.91;93829.72;5075131;28;20056;-71
2024/02/17 10:45:03;;;;;;;52.05;14.23;;;;;;;11.88;60.68;93820.00;5068100;28;20048;-71
2024/02/17 10:47:33;;;;;;;37.80;12.63;;;;;;;11.85;57.03;93825.59;5066854;28;20059;-71
2024/02/17 10:50:08;;;;;;;32.50;11.82;;;;;;;12.14;59.68;93824.31;5069757;28;20311;-71
2024/02/17 10:52:43;;;;;;;36.80;10.93;;;;;;;11.89;60.65;93822.41;5067234;28;20044;-71
2024/02/17 10:55:18;;;;;;;43.03;11.73;;;;;;;12.15;63.23;93795.00;5067540;28;20413;-71
2024/02/17 10:57:55;;;;;;;33.63;11.48;;;;;;;12.41;61.83;93802.81;5070344;28;20099;-71
2024/02/17 11:00:22;;;;;;;17.02;7.18;;;;;;;12.37;55.69;93824.84;5073512;28;20052;-71
2024/02/17 11:02:51;;;;;;;14.27;6.63;;;;;;;12.19;55.37;93822.91;5067666;28;20044;-71
2024/02/17 11:05:20;;;;;;;25.17;8.45;;;;;;;12.42;59.92;93805.19;5071320;28;20053;-71
2024/02/17 11:07:48;;;;;;;21.90;7.88;;;;;;;12.83;63.01;93795.44;5075023;28;20385;-71
2024/02/17 11:10:15;;;;;;;23.92;9.35;;;;;;;12.85;58.70;93799.59;5065142;28;20169;-71
2024/02/17 11:12:50;;;;;;;14.85;7.18;;;;;;;12.93;59.53;93804.50;5070908;28;20066;-71
2024/02/17 11:15:17;;;;;;;20.55;7.53;;;;;;;13.11;57.82;93803.78;5073180;28;20097;-71
2024/02/17 11:17:50;;;;;;;20.83;8.25;;;;;;;12.65;57.10;93803.09;5069031;28;20052;-71
2024/02/17 11:20:19;;;;;;;18.23;7.75;;;;;;;12.72;56.45;93800.47;5069832;28;20524;-71
2024/02/17 11:22:52;;;;;;;24.23;8.75;;;;;;;12.88;55.92;93805.13;5066029;28;20511;-71
2024/02/17 11:25:28;;;;;;;15.15;7.72;;;;;;;13.17;60.50;93792.63;5070052;28;20057;-71
2024/02/17 11:27:57;;;;;;;21.73;8.50;;;;;;;12.87;55.79;93789.88;5067621;28;20040;-71